sensor_id;sensor_type;location;lat;lon;timestamp;pressure;altitude;pressure_sealevel;temperature;humidity
63691;BME280;49837;57.280;27.070;2023-02-15T00:00:16;101508.11;;;-0.69;80.43
63691;BME280;49837;57.280;27.070;2023-02-15T00:01:16;101511.78;;;-0.7;81.02
63691;BME280;49837;57.280;27.070;2023-02-15T00:02:16;101503.1;;;-0.7;80.85
63691;BME280;49837;57.280;27.070;2023-02-15T00:03:16;101507.12;;;-0.69;80.8
63691;BME280;49837;57.280;27.070;2023-02-15T00:04:21;101501.02;;;-0.69;80.83
63691;BME280;49837;57.280;27.070;2023-02-15T00:05:18;101505.57;;;-0.71;81.35
63691;BME280;49837;57.280;27.070;2023-02-15T00:06:18;101504.38;;;-0.72;81.5
63691;BME280;49837;57.280;27.070;2023-02-15T00:07:19;101505.98;;;-0.76;81.59
63691;BME280;49837;57.280;27.070;2023-02-15T00:08:19;101507.55;;;-0.78;81.61
63691;BME280;49837;57.280;27.070;2023-02-15T00:09:19;101507.25;;;-0.75;81.2
63691;BME280;49837;57.280;27.070;2023-02-15T00:10:20;101510.97;;;-0.74;81.47
63691;BME280;49837;57.280;27.070;2023-02-15T00:11:20;101509.06;;;-0.74;81.12
63691;BME280;49837;57.280;27.070;2023-02-15T00:12:20;101508.77;;;-0.74;81.44
63691;BME280;49837;57.280;27.070;2023-02-15T00:13:21;101505.89;;;-0.72;81.16
63691;BME280;49837;57.280;27.070;2023-02-15T00:14:23;101507.49;;;-0.73;81.07
63691;BME280;49837;57.280;27.070;2023-02-15T00:15:21;101504.88;;;-0.76;82.36
63691;BME280;49837;57.280;27.070;2023-02-15T00:16:25;101505.86;;;-0.75;82.24
63691;BME280;49837;57.280;27.070;2023-02-15T00:17:26;101500.98;;;-0.76;82.47
63691;BME280;49837;57.280;27.070;2023-02-15T00:18:23;101502.09;;;-0.77;82.12
63691;BME280;49837;57.280;27.070;2023-02-15T00:19:24;101507.25;;;-0.75;81.89
63691;BME280;49837;57.280;27.070;2023-02-15T00:20:24;101505.16;;;-0.73;81.12
63691;BME280;49837;57.280;27.070;2023-02-15T00:21:24;101504.55;;;-0.75;80.67
63691;BME280;49837;57.280;27.070;2023-02-15T00:22:25;101505.73;;;-0.78;80.78
63691;BME280;49837;57.280;27.070;2023-02-15T00:23:26;101504.02;;;-0.78;81.06
63691;BME280;49837;57.280;27.070;2023-02-15T00:24:26;101508.24;;;-0.81;81.11
63691;BME280;49837;57.280;27.070;2023-02-15T00:25:26;101503.41;;;-0.83;81.21
63691;BME280;49837;57.280;27.070;2023-02-15T00:26:26;101503.24;;;-0.83;81.06
63691;BME280;49837;57.280;27.070;2023-02-15T00:27:26;101503.9;;;-0.83;81.21
63691;BME280;49837;57.280;27.070;2023-02-15T00:28:27;101504.47;;;-0.85;81.75
63691;BME280;49837;57.280;27.070;2023-02-15T00:29:27;101507.25;;;-0.84;81.51
63691;BME280;49837;57.280;27.070;2023-02-15T00:30:27;101508.9;;;-0.83;81.55
63691;BME280;49837;57.280;27.070;2023-02-15T00:31:29;101505.91;;;-0.82;81.08
63691;BME280;49837;57.280;27.070;2023-02-15T00:32:28;101506.84;;;-0.83;82.11
63691;BME280;49837;57.280;27.070;2023-02-15T00:33:28;101506.77;;;-0.85;82.65
63691;BME280;49837;57.280;27.070;2023-02-15T00:34:29;101505.58;;;-0.85;82.31
63691;BME280;49837;57.280;27.070;2023-02-15T00:35:29;101503.12;;;-0.86;81.87
63691;BME280;49837;57.280;27.070;2023-02-15T00:36:30;101502.47;;;-0.86;82.18
63691;BME280;49837;57.280;27.070;2023-02-15T00:37:30;101504.77;;;-0.86;82.83
63691;BME280;49837;57.280;27.070;2023-02-15T00:38:31;101500.98;;;-0.85;83.67
63691;BME280;49837;57.280;27.070;2023-02-15T00:39:30;101504.35;;;-0.84;83.24
63691;BME280;49837;57.280;27.070;2023-02-15T00:40:31;101507.27;;;-0.85;83.49
63691;BME280;49837;57.280;27.070;2023-02-15T00:41:32;101500.7;;;-0.85;83.32
63691;BME280;49837;57.280;27.070;2023-02-15T00:42:32;101502.39;;;-0.91;82.98
63691;BME280;49837;57.280;27.070;2023-02-15T00:43:35;101506.94;;;-0.9;83.31
63691;BME280;49837;57.280;27.070;2023-02-15T00:44:33;101502.97;;;-0.92;82.74
63691;BME280;49837;57.280;27.070;2023-02-15T00:45:33;101507.71;;;-0.91;81.43
63691;BME280;49837;57.280;27.070;2023-02-15T00:46:34;101505.18;;;-0.9;81.27
63691;BME280;49837;57.280;27.070;2023-02-15T00:47:34;101510.01;;;-0.91;81.44
63691;BME280;49837;57.280;27.070;2023-02-15T00:48:34;101510.12;;;-0.88;81.58
63691;BME280;49837;57.280;27.070;2023-02-15T00:49:34;101507.13;;;-0.89;81.9
63691;BME280;49837;57.280;27.070;2023-02-15T00:50:35;101507.13;;;-0.87;82.12
63691;BME280;49837;57.280;27.070;2023-02-15T00:51:35;101508.03;;;-0.86;82.18
63691;BME280;49837;57.280;27.070;2023-02-15T00:52:35;101508.95;;;-0.9;82.52
63691;BME280;49837;57.280;27.070;2023-02-15T00:53:36;101507.59;;;-0.9;82.05
63691;BME280;49837;57.280;27.070;2023-02-15T00:54:36;101509.06;;;-0.9;81.71
63691;BME280;49837;57.280;27.070;2023-02-15T00:55:37;101509.77;;;-0.93;82.14
63691;BME280;49837;57.280;27.070;2023-02-15T00:56:37;101509.64;;;-0.98;83.03
63691;BME280;49837;57.280;27.070;2023-02-15T00:57:37;101509.88;;;-1.01;83.2
63691;BME280;49837;57.280;27.070;2023-02-15T00:58:38;101506.2;;;-0.99;83.22
63691;BME280;49837;57.280;27.070;2023-02-15T00:59:38;101506.2;;;-0.96;82.33
63691;BME280;49837;57.280;27.070;2023-02-15T01:00:40;101504.97;;;-0.92;82.44
63691;BME280;49837;57.280;27.070;2023-02-15T01:01:39;101503.78;;;-0.93;82.6
63691;BME280;49837;57.280;27.070;2023-02-15T01:02:39;101499.81;;;-0.92;82.74
63691;BME280;49837;57.280;27.070;2023-02-15T01:03:39;101502.8;;;-0.93;82.82
63691;BME280;49837;57.280;27.070;2023-02-15T01:04:40;101503.25;;;-0.92;82.44
63691;BME280;49837;57.280;27.070;2023-02-15T01:05:40;101498.33;;;-0.9;81.8
63691;BME280;49837;57.280;27.070;2023-02-15T01:06:40;101500.42;;;-0.89;82.28
63691;BME280;49837;57.280;27.070;2023-02-15T01:07:41;101495.55;;;-0.86;82.0
63691;BME280;49837;57.280;27.070;2023-02-15T01:08:41;101498.94;;;-0.82;81.7
63691;BME280;49837;57.280;27.070;2023-02-15T01:09:41;101494.23;;;-0.85;81.65
63691;BME280;49837;57.280;27.070;2023-02-15T01:10:41;101490.8;;;-0.85;81.73
63691;BME280;49837;57.280;27.070;2023-02-15T01:11:43;101490.02;;;-0.86;82.39
63691;BME280;49837;57.280;27.070;2023-02-15T01:12:42;101487.36;;;-0.87;82.82
63691;BME280;49837;57.280;27.070;2023-02-15T01:13:43;101485.97;;;-0.87;83.13
63691;BME280;49837;57.280;27.070;2023-02-15T01:14:43;101483.06;;;-0.86;82.69
63691;BME280;49837;57.280;27.070;2023-02-15T01:15:52;101488.17;;;-0.87;82.66
63691;BME280;49837;57.280;27.070;2023-02-15T01:16:46;101483.06;;;-0.88;82.82
63691;BME280;49837;57.280;27.070;2023-02-15T01:17:45;101480.06;;;-0.9;83.19
63691;BME280;49837;57.280;27.070;2023-02-15T01:18:46;101480.23;;;-0.9;82.77
63691;BME280;49837;57.280;27.070;2023-02-15T01:19:46;101479.17;;;-0.93;83.09
63691;BME280;49837;57.280;27.070;2023-02-15T01:20:46;101478.59;;;-0.96;82.92
63691;BME280;49837;57.280;27.070;2023-02-15T01:21:47;101479.42;;;-0.96;82.65
63691;BME280;49837;57.280;27.070;2023-02-15T01:22:47;101475.98;;;-1.0;82.49
63691;BME280;49837;57.280;27.070;2023-02-15T01:23:48;101477.83;;;-0.94;82.65
63691;BME280;49837;57.280;27.070;2023-02-15T01:24:50;101475.28;;;-0.95;83.45
63691;BME280;49837;57.280;27.070;2023-02-15T01:25:48;101477.25;;;-0.97;83.1
63691;BME280;49837;57.280;27.070;2023-02-15T01:26:50;101474.3;;;-0.95;81.92
63691;BME280;49837;57.280;27.070;2023-02-15T01:27:49;101474.46;;;-0.93;81.81
63691;BME280;49837;57.280;27.070;2023-02-15T01:28:49;101473.23;;;-0.93;81.47
63691;BME280;49837;57.280;27.070;2023-02-15T01:29:49;101469.19;;;-0.96;81.45
63691;BME280;49837;57.280;27.070;2023-02-15T01:30:50;101469.72;;;-0.95;81.61
63691;BME280;49837;57.280;27.070;2023-02-15T01:31:50;101471.27;;;-0.91;81.69
63691;BME280;49837;57.280;27.070;2023-02-15T01:32:51;101472.57;;;-0.86;80.93
63691;BME280;49837;57.280;27.070;2023-02-15T01:33:51;101467.28;;;-0.81;80.58
63691;BME280;49837;57.280;27.070;2023-02-15T01:34:51;101472.61;;;-0.79;80.02
63691;BME280;49837;57.280;27.070;2023-02-15T01:35:58;101474.48;;;-0.79;80.57
63691;BME280;49837;57.280;27.070;2023-02-15T01:36:56;101471.94;;;-0.77;80.7
63691;BME280;49837;57.280;27.070;2023-02-15T01:37:57;101467.03;;;-0.83;81.42
63691;BME280;49837;57.280;27.070;2023-02-15T01:38:57;101470.56;;;-0.88;82.33
63691;BME280;49837;57.280;27.070;2023-02-15T01:39:57;101469.95;;;-0.86;81.86
63691;BME280;49837;57.280;27.070;2023-02-15T01:40:58;101468.03;;;-0.87;81.98
63691;BME280;49837;57.280;27.070;2023-02-15T01:42:01;101469.22;;;-0.97;82.41
63691;BME280;49837;57.280;27.070;2023-02-15T01:43:00;101467.72;;;-1.07;83.64
63691;BME280;49837;57.280;27.070;2023-02-15T01:44:01;101471.11;;;-1.12;83.47
63691;BME280;49837;57.280;27.070;2023-02-15T01:46:04;101474.14;;;-1.06;83.36
63691;BME280;49837;57.280;27.070;2023-02-15T01:47:04;101474.39;;;-1.06;83.27
63691;BME280;49837;57.280;27.070;2023-02-15T01:49:11;101469.34;;;-1.03;82.48
63691;BME280;49837;57.280;27.070;2023-02-15T01:51:13;101468.81;;;-0.94;82.39
63691;BME280;49837;57.280;27.070;2023-02-15T01:52:15;101468.24;;;-0.92;82.48
63691;BME280;49837;57.280;27.070;2023-02-15T01:53:17;101470.0;;;-0.94;82.19
63691;BME280;49837;57.280;27.070;2023-02-15T01:55:22;101466.44;;;-0.93;81.52
63691;BME280;49837;57.280;27.070;2023-02-15T01:56:28;101469.96;;;-0.95;81.84
63691;BME280;49837;57.280;27.070;2023-02-15T01:57:24;101471.84;;;-0.97;82.14
63691;BME280;49837;57.280;27.070;2023-02-15T01:58:26;101472.12;;;-0.92;82.17
63691;BME280;49837;57.280;27.070;2023-02-15T01:59:25;101467.78;;;-0.94;82.46
63691;BME280;49837;57.280;27.070;2023-02-15T02:00:25;101462.84;;;-0.97;82.71
63691;BME280;49837;57.280;27.070;2023-02-15T02:01:26;101465.7;;;-0.97;82.53
63691;BME280;49837;57.280;27.070;2023-02-15T02:02:27;101459.44;;;-0.96;81.87
63691;BME280;49837;57.280;27.070;2023-02-15T02:05:29;101453.0;;;-0.91;82.25
63691;BME280;49837;57.280;27.070;2023-02-15T02:06:29;101451.98;;;-0.92;82.92
63691;BME280;49837;57.280;27.070;2023-02-15T02:07:33;101450.95;;;-0.93;83.17
63691;BME280;49837;57.280;27.070;2023-02-15T02:08:32;101451.12;;;-0.93;83.55
63691;BME280;49837;57.280;27.070;2023-02-15T02:09:34;101458.98;;;-0.97;84.18
63691;BME280;49837;57.280;27.070;2023-02-15T02:10:33;101460.18;;;-0.98;83.48
63691;BME280;49837;57.280;27.070;2023-02-15T02:11:34;101461.0;;;-1.02;84.07
63691;BME280;49837;57.280;27.070;2023-02-15T02:12:34;101456.08;;;-1.03;83.84
63691;BME280;49837;57.280;27.070;2023-02-15T02:13:34;101449.2;;;-0.96;82.41
63691;BME280;49837;57.280;27.070;2023-02-15T02:14:34;101448.81;;;-0.89;82.2
63691;BME280;49837;57.280;27.070;2023-02-15T02:15:44;101447.79;;;-0.85;82.35
63691;BME280;49837;57.280;27.070;2023-02-15T02:34:31;101432.28;;;-0.97;82.86
63691;BME280;49837;57.280;27.070;2023-02-15T02:39:37;101430.36;;;-0.96;81.81
63691;BME280;49837;57.280;27.070;2023-02-15T02:40:48;101431.09;;;-0.94;81.83
63691;BME280;49837;57.280;27.070;2023-02-15T02:42:40;101430.85;;;-0.94;81.51
63691;BME280;49837;57.280;27.070;2023-02-15T02:44:46;101427.45;;;-0.95;82.56
63691;BME280;49837;57.280;27.070;2023-02-15T02:47:54;101434.78;;;-0.94;82.82
63691;BME280;49837;57.280;27.070;2023-02-15T02:48:49;101433.31;;;-0.94;82.81
63691;BME280;49837;57.280;27.070;2023-02-15T02:49:52;101432.41;;;-0.95;83.17
63691;BME280;49837;57.280;27.070;2023-02-15T02:50:50;101431.38;;;-0.93;83.08
63691;BME280;49837;57.280;27.070;2023-02-15T02:51:58;101428.39;;;-0.92;82.93
63691;BME280;49837;57.280;27.070;2023-02-15T02:52:52;101430.44;;;-0.91;82.89
63691;BME280;49837;57.280;27.070;2023-02-15T02:53:53;101428.8;;;-0.9;83.16
63691;BME280;49837;57.280;27.070;2023-02-15T02:54:52;101430.67;;;-0.88;82.91
63691;BME280;49837;57.280;27.070;2023-02-15T02:56:59;101435.34;;;-0.87;82.76
63691;BME280;49837;57.280;27.070;2023-02-15T03:00:07;101431.59;;;-1.01;81.22
63691;BME280;49837;57.280;27.070;2023-02-15T03:01:17;101434.95;;;-1.02;81.8
63691;BME280;49837;57.280;27.070;2023-02-15T03:02:25;101437.91;;;-1.04;82.44
63691;BME280;49837;57.280;27.070;2023-02-15T03:05:22;101441.87;;;-0.95;82.57
63691;BME280;49837;57.280;27.070;2023-02-15T03:06:27;101444.7;;;-0.94;82.92
63691;BME280;49837;57.280;27.070;2023-02-15T03:07:26;101444.16;;;-0.92;82.43
63691;BME280;49837;57.280;27.070;2023-02-15T03:08:30;101446.2;;;-0.91;82.28
63691;BME280;49837;57.280;27.070;2023-02-15T03:10:35;101445.7;;;-0.88;82.45
63691;BME280;49837;57.280;27.070;2023-02-15T03:11:34;101446.25;;;-0.89;82.83
63691;BME280;49837;57.280;27.070;2023-02-15T03:12:36;101443.46;;;-0.89;82.47
63691;BME280;49837;57.280;27.070;2023-02-15T03:13:35;101445.95;;;-0.89;82.56
63691;BME280;49837;57.280;27.070;2023-02-15T03:14:35;101447.67;;;-0.91;82.96
63691;BME280;49837;57.280;27.070;2023-02-15T03:15:38;101446.73;;;-0.92;82.81
63691;BME280;49837;57.280;27.070;2023-02-15T03:16:37;101445.88;;;-0.9;82.28
63691;BME280;49837;57.280;27.070;2023-02-15T03:17:44;101443.09;;;-0.88;82.6
63691;BME280;49837;57.280;27.070;2023-02-15T03:18:43;101438.75;;;-0.88;82.53
63691;BME280;49837;57.280;27.070;2023-02-15T03:19:44;101437.97;;;-0.87;82.75
63691;BME280;49837;57.280;27.070;2023-02-15T03:20:43;101438.7;;;-0.87;83.08
63691;BME280;49837;57.280;27.070;2023-02-15T03:21:49;101438.05;;;-0.92;83.69
63691;BME280;49837;57.280;27.070;2023-02-15T03:22:54;101435.23;;;-0.91;83.72
63691;BME280;49837;57.280;27.070;2023-02-15T03:23:49;101430.28;;;-0.91;83.41
63691;BME280;49837;57.280;27.070;2023-02-15T03:25:15;101429.92;;;-0.99;82.95
63691;BME280;49837;57.280;27.070;2023-02-15T03:25:59;101426.31;;;-1.01;82.94
63691;BME280;49837;57.280;27.070;2023-02-15T03:26:58;101427.5;;;-1.0;83.39
63691;BME280;49837;57.280;27.070;2023-02-15T03:28:03;101428.16;;;-1.07;83.89
63691;BME280;49837;57.280;27.070;2023-02-15T03:29:04;101427.27;;;-1.08;84.2
63691;BME280;49837;57.280;27.070;2023-02-15T03:30:03;101426.77;;;-1.04;84.39
63691;BME280;49837;57.280;27.070;2023-02-15T03:31:07;101426.23;;;-1.01;84.19
63691;BME280;49837;57.280;27.070;2023-02-15T03:32:07;101424.22;;;-1.01;84.28
63691;BME280;49837;57.280;27.070;2023-02-15T03:33:08;101426.39;;;-1.0;84.02
63691;BME280;49837;57.280;27.070;2023-02-15T03:34:11;101423.53;;;-1.01;84.24
63691;BME280;49837;57.280;27.070;2023-02-15T03:35:09;101422.75;;;-1.02;84.27
63691;BME280;49837;57.280;27.070;2023-02-15T03:38:16;101417.67;;;-0.98;84.13
63691;BME280;49837;57.280;27.070;2023-02-15T03:41:22;101410.88;;;-0.99;83.75
63691;BME280;49837;57.280;27.070;2023-02-15T03:44:31;101406.7;;;-0.98;82.42
63691;BME280;49837;57.280;27.070;2023-02-15T03:45:31;101406.48;;;-0.95;82.06
63691;BME280;49837;57.280;27.070;2023-02-15T03:46:39;101412.46;;;-0.9;81.75
63691;BME280;49837;57.280;27.070;2023-02-15T03:47:43;101403.48;;;-0.9;81.15
63691;BME280;49837;57.280;27.070;2023-02-15T03:48:40;101405.7;;;-0.9;80.94
63691;BME280;49837;57.280;27.070;2023-02-15T03:50:40;101405.21;;;-0.92;81.73
63691;BME280;49837;57.280;27.070;2023-02-15T03:51:42;101400.3;;;-0.91;81.7
63691;BME280;49837;57.280;27.070;2023-02-15T03:52:41;101404.69;;;-0.95;82.09
63691;BME280;49837;57.280;27.070;2023-02-15T03:53:43;101404.2;;;-0.99;82.68
63691;BME280;49837;57.280;27.070;2023-02-15T03:54:43;101404.32;;;-0.96;82.61
63691;BME280;49837;57.280;27.070;2023-02-15T03:55:49;101400.72;;;-0.98;82.31
63691;BME280;49837;57.280;27.070;2023-02-15T03:56:48;101401.7;;;-0.99;82.04
63691;BME280;49837;57.280;27.070;2023-02-15T03:57:47;101401.2;;;-0.96;81.9
63691;BME280;49837;57.280;27.070;2023-02-15T03:58:47;101396.45;;;-0.92;82.35
63691;BME280;49837;57.280;27.070;2023-02-15T03:59:48;101400.34;;;-0.91;82.27
63691;BME280;49837;57.280;27.070;2023-02-15T04:00:55;101397.67;;;-0.88;81.6
63691;BME280;49837;57.280;27.070;2023-02-15T04:04:56;101402.77;;;-0.8;79.53
63691;BME280;49837;57.280;27.070;2023-02-15T04:05:56;101407.53;;;-0.84;79.24
63691;BME280;49837;57.280;27.070;2023-02-15T04:06:57;101407.11;;;-0.8;78.82
63691;BME280;49837;57.280;27.070;2023-02-15T04:07:57;101403.7;;;-0.79;78.84
63691;BME280;49837;57.280;27.070;2023-02-15T04:08:57;101406.27;;;-0.85;78.78
63691;BME280;49837;57.280;27.070;2023-02-15T04:09:58;101403.72;;;-0.85;78.46
63691;BME280;49837;57.280;27.070;2023-02-15T04:10:58;101403.8;;;-0.85;78.6
63691;BME280;49837;57.280;27.070;2023-02-15T04:11:59;101407.32;;;-0.83;78.95
63691;BME280;49837;57.280;27.070;2023-02-15T04:12:59;101406.34;;;-0.83;78.95
63691;BME280;49837;57.280;27.070;2023-02-15T04:13:59;101404.95;;;-0.85;79.68
63691;BME280;49837;57.280;27.070;2023-02-15T04:14:59;101403.88;;;-0.84;80.17
63691;BME280;49837;57.280;27.070;2023-02-15T04:16:00;101405.98;;;-0.86;80.28
63691;BME280;49837;57.280;27.070;2023-02-15T04:17:00;101408.03;;;-0.86;80.7
63691;BME280;49837;57.280;27.070;2023-02-15T04:18:03;101409.58;;;-0.86;80.78
63691;BME280;49837;57.280;27.070;2023-02-15T04:19:01;101411.14;;;-0.87;80.58
63691;BME280;49837;57.280;27.070;2023-02-15T04:20:01;101414.55;;;-0.9;80.22
63691;BME280;49837;57.280;27.070;2023-02-15T04:21:01;101412.45;;;-0.88;80.39
63691;BME280;49837;57.280;27.070;2023-02-15T04:22:02;101415.27;;;-0.85;81.67
63691;BME280;49837;57.280;27.070;2023-02-15T04:23:05;101415.06;;;-0.83;82.01
63691;BME280;49837;57.280;27.070;2023-02-15T04:24:03;101414.19;;;-0.79;81.06
63691;BME280;49837;57.280;27.070;2023-02-15T04:25:04;101414.98;;;-0.82;82.21
63691;BME280;49837;57.280;27.070;2023-02-15T04:26:04;101412.79;;;-0.93;84.02
63691;BME280;49837;57.280;27.070;2023-02-15T04:27:05;101406.03;;;-0.94;84.25
63691;BME280;49837;57.280;27.070;2023-02-15T04:28:04;101409.51;;;-0.91;83.59
63691;BME280;49837;57.280;27.070;2023-02-15T04:29:04;101409.02;;;-0.89;83.2
63691;BME280;49837;57.280;27.070;2023-02-15T04:30:06;101403.93;;;-0.86;83.13
63691;BME280;49837;57.280;27.070;2023-02-15T04:31:05;101407.19;;;-0.83;82.53
63691;BME280;49837;57.280;27.070;2023-02-15T04:32:05;101402.94;;;-0.83;82.34
63691;BME280;49837;57.280;27.070;2023-02-15T04:33:06;101404.64;;;-0.89;82.68
63691;BME280;49837;57.280;27.070;2023-02-15T04:34:06;101405.53;;;-0.9;82.39
63691;BME280;49837;57.280;27.070;2023-02-15T04:35:07;101404.47;;;-0.87;82.21
63691;BME280;49837;57.280;27.070;2023-02-15T04:36:07;101401.84;;;-0.85;82.51
63691;BME280;49837;57.280;27.070;2023-02-15T04:37:07;101405.85;;;-0.83;82.54
63691;BME280;49837;57.280;27.070;2023-02-15T04:38:07;101401.58;;;-0.79;82.72
63691;BME280;49837;57.280;27.070;2023-02-15T04:39:08;101402.72;;;-0.77;82.8
63691;BME280;49837;57.280;27.070;2023-02-15T04:40:11;101402.47;;;-0.77;83.18
63691;BME280;49837;57.280;27.070;2023-02-15T04:41:10;101401.77;;;-0.76;83.01
63691;BME280;49837;57.280;27.070;2023-02-15T04:42:09;101403.61;;;-0.75;83.25
63691;BME280;49837;57.280;27.070;2023-02-15T04:43:09;101401.08;;;-0.75;83.34
63691;BME280;49837;57.280;27.070;2023-02-15T04:44:10;101406.0;;;-0.79;83.03
63691;BME280;49837;57.280;27.070;2023-02-15T04:45:10;101402.16;;;-0.82;83.04
63691;BME280;49837;57.280;27.070;2023-02-15T04:46:10;101408.88;;;-0.83;83.67
63691;BME280;49837;57.280;27.070;2023-02-15T04:47:11;101407.38;;;-0.87;83.79
63691;BME280;49837;57.280;27.070;2023-02-15T04:48:11;101408.24;;;-0.89;84.06
63691;BME280;49837;57.280;27.070;2023-02-15T04:49:11;101404.09;;;-0.89;84.02
63691;BME280;49837;57.280;27.070;2023-02-15T04:50:12;101399.88;;;-0.87;83.69
63691;BME280;49837;57.280;27.070;2023-02-15T04:51:12;101403.77;;;-0.86;83.27
63691;BME280;49837;57.280;27.070;2023-02-15T04:52:12;101400.86;;;-0.87;83.32
63691;BME280;49837;57.280;27.070;2023-02-15T04:53:13;101398.69;;;-0.84;82.91
63691;BME280;49837;57.280;27.070;2023-02-15T04:54:13;101401.95;;;-0.83;83.11
63691;BME280;49837;57.280;27.070;2023-02-15T04:55:13;101400.07;;;-0.82;83.68
63691;BME280;49837;57.280;27.070;2023-02-15T04:56:14;101402.78;;;-0.84;83.74
63691;BME280;49837;57.280;27.070;2023-02-15T04:57:14;101406.13;;;-0.82;83.46
63691;BME280;49837;57.280;27.070;2023-02-15T04:58:14;101408.83;;;-0.8;82.89
63691;BME280;49837;57.280;27.070;2023-02-15T04:59:15;101405.34;;;-0.77;82.87
63691;BME280;49837;57.280;27.070;2023-02-15T05:00:15;101405.3;;;-0.76;83.2
63691;BME280;49837;57.280;27.070;2023-02-15T05:01:15;101406.05;;;-0.8;83.49
63691;BME280;49837;57.280;27.070;2023-02-15T05:02:16;101402.78;;;-0.87;83.29
63691;BME280;49837;57.280;27.070;2023-02-15T05:03:16;101405.2;;;-0.88;83.23
63691;BME280;49837;57.280;27.070;2023-02-15T05:04:16;101405.16;;;-0.89;83.87
63691;BME280;49837;57.280;27.070;2023-02-15T05:05:17;101403.86;;;-0.95;84.47
63691;BME280;49837;57.280;27.070;2023-02-15T05:06:17;101401.04;;;-0.96;84.68
63691;BME280;49837;57.280;27.070;2023-02-15T05:07:17;101402.64;;;-0.95;84.78
63691;BME280;49837;57.280;27.070;2023-02-15T05:08:18;101400.84;;;-0.97;85.01
63691;BME280;49837;57.280;27.070;2023-02-15T05:09:18;101400.92;;;-0.95;85.9
63691;BME280;49837;57.280;27.070;2023-02-15T05:10:19;101400.78;;;-0.9;85.96
63691;BME280;49837;57.280;27.070;2023-02-15T05:11:19;101396.59;;;-0.85;86.05
63691;BME280;49837;57.280;27.070;2023-02-15T05:12:19;101400.11;;;-0.81;85.18
63691;BME280;49837;57.280;27.070;2023-02-15T05:13:19;101396.77;;;-0.76;84.28
63691;BME280;49837;57.280;27.070;2023-02-15T05:14:20;101398.24;;;-0.74;83.6
63691;BME280;49837;57.280;27.070;2023-02-15T05:15:20;101395.83;;;-0.73;83.93
63691;BME280;49837;57.280;27.070;2023-02-15T05:16:20;101394.48;;;-0.73;83.91
63691;BME280;49837;57.280;27.070;2023-02-15T05:17:21;101395.86;;;-0.72;83.7
63691;BME280;49837;57.280;27.070;2023-02-15T05:18:21;101394.39;;;-0.74;83.54
63691;BME280;49837;57.280;27.070;2023-02-15T05:19:21;101394.44;;;-0.75;83.62
63691;BME280;49837;57.280;27.070;2023-02-15T05:20:23;101398.09;;;-0.78;83.73
63691;BME280;49837;57.280;27.070;2023-02-15T05:21:25;101394.29;;;-0.82;84.03
63691;BME280;49837;57.280;27.070;2023-02-15T05:22:22;101397.45;;;-0.82;84.19
63691;BME280;49837;57.280;27.070;2023-02-15T05:23:23;101398.22;;;-0.79;84.34
63691;BME280;49837;57.280;27.070;2023-02-15T05:24:23;101400.84;;;-0.81;85.12
63691;BME280;49837;57.280;27.070;2023-02-15T05:25:23;101398.22;;;-0.79;85.02
63691;BME280;49837;57.280;27.070;2023-02-15T05:26:24;101402.23;;;-0.79;84.7
63691;BME280;49837;57.280;27.070;2023-02-15T05:27:24;101404.6;;;-0.77;84.53
63691;BME280;49837;57.280;27.070;2023-02-15T05:28:26;101408.49;;;-0.76;84.74
63691;BME280;49837;57.280;27.070;2023-02-15T05:29:25;101401.19;;;-0.74;84.31
63691;BME280;49837;57.280;27.070;2023-02-15T05:30:25;101400.42;;;-0.77;84.15
63691;BME280;49837;57.280;27.070;2023-02-15T05:31:25;101404.41;;;-0.79;84.47
63691;BME280;49837;57.280;27.070;2023-02-15T05:32:26;101402.43;;;-0.78;84.59
63691;BME280;49837;57.280;27.070;2023-02-15T05:33:26;101406.0;;;-0.77;84.74
63691;BME280;49837;57.280;27.070;2023-02-15T05:34:27;101404.41;;;-0.78;84.95
63691;BME280;49837;57.280;27.070;2023-02-15T05:35:27;101404.2;;;-0.81;83.92
63691;BME280;49837;57.280;27.070;2023-02-15T05:36:27;101406.38;;;-0.8;83.85
63691;BME280;49837;57.280;27.070;2023-02-15T05:37:27;101406.21;;;-0.83;83.8
63691;BME280;49837;57.280;27.070;2023-02-15T05:38:28;101407.52;;;-0.8;84.05
63691;BME280;49837;57.280;27.070;2023-02-15T05:39:28;101408.34;;;-0.8;84.33
63691;BME280;49837;57.280;27.070;2023-02-15T05:40:29;101411.85;;;-0.78;84.3
63691;BME280;49837;57.280;27.070;2023-02-15T05:41:29;101406.16;;;-0.77;84.58
63691;BME280;49837;57.280;27.070;2023-02-15T05:42:29;101406.78;;;-0.77;84.27
63691;BME280;49837;57.280;27.070;2023-02-15T05:43:30;101408.98;;;-0.78;84.91
63691;BME280;49837;57.280;27.070;2023-02-15T05:44:30;101413.73;;;-0.76;85.08
63691;BME280;49837;57.280;27.070;2023-02-15T05:45:30;101410.69;;;-0.72;84.42
63691;BME280;49837;57.280;27.070;2023-02-15T05:46:31;101412.16;;;-0.7;85.03
63691;BME280;49837;57.280;27.070;2023-02-15T05:47:31;101414.61;;;-0.7;84.43
63691;BME280;49837;57.280;27.070;2023-02-15T05:48:32;101414.91;;;-0.71;84.32
63691;BME280;49837;57.280;27.070;2023-02-15T05:49:32;101412.83;;;-0.71;84.54
63691;BME280;49837;57.280;27.070;2023-02-15T05:50:32;101418.76;;;-0.71;83.44
63691;BME280;49837;57.280;27.070;2023-02-15T05:51:32;101416.58;;;-0.68;83.67
63691;BME280;49837;57.280;27.070;2023-02-15T05:52:33;101415.63;;;-0.66;83.92
63691;BME280;49837;57.280;27.070;2023-02-15T05:53:35;101414.12;;;-0.65;83.59
63691;BME280;49837;57.280;27.070;2023-02-15T05:54:36;101415.17;;;-0.61;83.81
63691;BME280;49837;57.280;27.070;2023-02-15T05:55:34;101416.72;;;-0.59;84.07
63691;BME280;49837;57.280;27.070;2023-02-15T05:56:34;101416.22;;;-0.57;84.56
63691;BME280;49837;57.280;27.070;2023-02-15T05:57:35;101420.13;;;-0.53;84.34
63691;BME280;49837;57.280;27.070;2023-02-15T05:58:36;101417.42;;;-0.5;83.66
63691;BME280;49837;57.280;27.070;2023-02-15T05:59:35;101418.33;;;-0.41;81.94
63691;BME280;49837;57.280;27.070;2023-02-15T06:00:35;101416.71;;;-0.45;83.07
63691;BME280;49837;57.280;27.070;2023-02-15T06:01:36;101417.81;;;-0.53;83.58
63691;BME280;49837;57.280;27.070;2023-02-15T06:02:36;101419.55;;;-0.51;83.47